Time,TemperatureF,DewpointF,PressureIn,WindDirection,WindDirectionDegrees,WindSpeedMPH,WindSpeedGustMPH,Humidity,HourlyPrecipIn,Conditions,Clouds,dailyrainin,SoftwareType,DateUTC
2013-01-26 00:21:00,57.0,56.0,29.96,North,-999,0.0,0.0,97,0.00,,,-99.99,,2013-01-26 08:21:00,
2013-01-26 00:31:00,57.0,56.0,29.96,North,-999,0.0,0.0,97,0.00,,,-99.99,,2013-01-26 08:31:00,
2013-01-26 00:42:00,57.0,56.0,29.96,North,-999,0.0,0.0,97,0.00,,,-99.99,,2013-01-26 08:42:00,
2013-01-26 01:22:00,57.0,56.0,29.95,North,-999,0.0,0.0,97,0.00,,,-99.99,,2013-01-26 09:22:00,
2013-01-26 01:31:00,57.0,56.0,29.95,North,-999,0.0,0.0,97,0.00,,,-99.99,,2013-01-26 09:31:00,
2013-01-26 01:42:00,57.0,56.0,29.95,North,-999,0.0,0.0,97,0.00,,,-99.99,,2013-01-26 09:42:00,
2013-01-26 03:22:00,56.0,55.0,29.93,North,-999,0.0,0.0,98,0.00,,,-99.99,,2013-01-26 11:22:00,
2013-01-26 03:32:00,56.0,55.0,29.93,North,-999,0.0,0.0,98,0.00,,,-99.99,,2013-01-26 11:32:00,
2013-01-26 03:42:00,56.0,55.0,29.93,North,-999,0.0,0.0,98,0.00,,,-99.99,,2013-01-26 11:42:00,
2013-01-26 04:22:00,56.0,55.0,29.90,North,-999,0.0,0.0,98,0.00,,,-99.99,,2013-01-26 12:22:00,
2013-01-26 04:33:00,56.0,55.0,29.90,North,-999,0.0,0.0,98,0.00,,,-99.99,,2013-01-26 12:33:00,
2013-01-26 04:42:00,56.0,55.0,29.90,North,-999,0.0,0.0,98,0.00,,,-99.99,,2013-01-26 12:42:00,
2013-01-26 05:22:00,55.0,55.0,29.89,North,-999,0.0,0.0,99,0.00,,,-99.99,,2013-01-26 13:22:00,
2013-01-26 05:32:00,55.0,55.0,29.89,North,-999,0.0,0.0,99,0.00,,,-99.99,,2013-01-26 13:32:00,
2013-01-26 05:42:00,55.0,55.0,29.89,North,-999,0.0,0.0,99,0.00,,,-99.99,,2013-01-26 13:42:00,
2013-01-26 06:21:00,55.0,55.0,29.88,North,-999,0.0,0.0,99,0.00,,,-99.99,,2013-01-26 14:21:00,
2013-01-26 06:32:00,55.0,55.0,29.88,North,-999,0.0,0.0,99,0.00,,,-99.99,,2013-01-26 14:32:00,
2013-01-26 06:42:00,55.0,55.0,29.88,North,-999,0.0,0.0,99,0.00,,,-99.99,,2013-01-26 14:42:00,
2013-01-26 07:22:00,54.0,54.0,29.90,North,-999,0.0,0.0,100,0.01,,,-99.99,,2013-01-26 15:22:00,
2013-01-26 07:32:00,54.0,54.0,29.90,North,-999,0.0,0.0,100,0.01,,,-99.99,,2013-01-26 15:32:00,
2013-01-26 07:43:00,54.0,54.0,29.90,North,-999,0.0,0.0,100,0.01,,,-99.99,,2013-01-26 15:43:00,
2013-01-26 08:22:00,55.0,55.0,29.90,North,-999,0.0,0.0,100,0.00,,,-99.99,,2013-01-26 16:22:00,
2013-01-26 08:32:00,55.0,55.0,29.90,North,-999,0.0,0.0,100,0.00,,,-99.99,,2013-01-26 16:32:00,
2013-01-26 08:42:00,55.0,55.0,29.90,North,-999,0.0,0.0,100,0.00,,,-99.99,,2013-01-26 16:42:00,
2013-01-26 09:22:00,56.0,56.0,29.93,North,-999,0.0,0.0,100,0.00,,,-99.99,,2013-01-26 17:22:00,
2013-01-26 09:32:00,56.0,56.0,29.93,North,-999,0.0,0.0,100,0.00,,,-99.99,,2013-01-26 17:32:00,
2013-01-26 09:42:00,56.0,56.0,29.93,North,-999,0.0,0.0,100,0.00,,,-99.99,,2013-01-26 17:42:00,
2013-01-26 10:22:00,58.0,58.0,29.94,North,0,0.0,4.0,100,0.00,,,-99.99,,2013-01-26 18:22:00,
2013-01-26 10:32:00,58.0,58.0,29.94,North,0,0.0,4.0,100,0.00,,,-99.99,,2013-01-26 18:32:00,
2013-01-26 10:42:00,58.0,58.0,29.94,North,0,0.0,4.0,100,0.00,,,-99.99,,2013-01-26 18:42:00,
2013-01-26 11:22:00,59.0,58.0,29.94,North,0,0.0,4.0,97,0.04,,,-99.99,,2013-01-26 19:22:00,
2013-01-26 11:32:00,59.0,58.0,29.94,North,0,0.0,4.0,97,0.04,,,-99.99,,2013-01-26 19:32:00,
2013-01-26 11:42:00,59.0,58.0,29.94,North,0,0.0,4.0,97,0.04,,,-99.99,,2013-01-26 19:42:00,
2013-01-26 12:21:00,59.0,58.0,29.92,North,0,0.0,3.0,96,0.01,,,-99.99,,2013-01-26 20:21:00,
2013-01-26 12:32:00,59.0,58.0,29.92,North,0,0.0,3.0,96,0.01,,,-99.99,,2013-01-26 20:32:00,
2013-01-26 12:42:00,59.0,58.0,29.92,North,0,0.0,3.0,96,0.01,,,-99.99,,2013-01-26 20:42:00,
2013-01-26 13:22:00,62.0,59.0,29.88,WNW,300,1.0,4.0,90,0.00,,,-99.99,,2013-01-26 21:22:00,
2013-01-26 13:32:00,62.0,59.0,29.88,WNW,300,1.0,4.0,90,0.00,,,-99.99,,2013-01-26 21:32:00,
2013-01-26 13:42:00,62.0,59.0,29.88,WNW,300,1.0,4.0,90,0.00,,,-99.99,,2013-01-26 21:42:00,
2013-01-26 14:21:00,63.0,59.0,29.88,WSW,240,2.0,6.0,86,0.00,,,-99.99,,2013-01-26 22:21:00,
2013-01-26 14:31:00,63.0,59.0,29.88,WSW,240,2.0,6.0,86,0.00,,,-99.99,,2013-01-26 22:31:00,
2013-01-26 14:42:00,63.0,59.0,29.88,WSW,240,2.0,6.0,86,0.00,,,-99.99,,2013-01-26 22:42:00,
2013-01-26 15:21:00,63.0,58.0,29.88,South,180,4.0,6.0,84,0.00,,,-99.99,,2013-01-26 23:21:00,
2013-01-26 15:32:00,63.0,58.0,29.88,South,180,4.0,6.0,84,0.00,,,-99.99,,2013-01-26 23:32:00,
2013-01-26 15:41:00,63.0,58.0,29.88,South,180,4.0,6.0,84,0.00,,,-99.99,,2013-01-26 23:41:00,
2013-01-26 16:21:00,61.0,58.0,29.88,WSW,240,4.0,10.0,91,0.00,,,-99.99,,2013-01-27 00:21:00,
2013-01-26 16:32:00,61.0,58.0,29.88,WSW,240,4.0,10.0,91,0.00,,,-99.99,,2013-01-27 00:32:00,
2013-01-26 16:41:00,61.0,58.0,29.88,WSW,240,4.0,10.0,91,0.00,,,-99.99,,2013-01-27 00:41:00,
2013-01-26 17:22:00,60.0,57.0,29.89,WSW,250,3.0,10.0,91,0.00,,,-99.99,,2013-01-27 01:22:00,
2013-01-26 17:32:00,60.0,57.0,29.89,WSW,250,3.0,10.0,91,0.00,,,-99.99,,2013-01-27 01:32:00,
2013-01-26 17:41:00,60.0,57.0,29.89,WSW,250,3.0,10.0,91,0.00,,,-99.99,,2013-01-27 01:41:00,
2013-01-26 18:21:00,59.0,56.0,29.91,West,270,3.0,8.0,91,0.00,,,-99.99,,2013-01-27 02:21:00,
2013-01-26 18:31:00,59.0,56.0,29.91,West,270,3.0,8.0,91,0.00,,,-99.99,,2013-01-27 02:31:00,
2013-01-26 18:41:00,59.0,56.0,29.91,West,270,3.0,8.0,91,0.00,,,-99.99,,2013-01-27 02:41:00,
2013-01-26 19:21:00,58.0,56.0,29.93,West,260,3.0,7.0,92,0.00,,,-99.99,,2013-01-27 03:21:00,
2013-01-26 19:31:00,58.0,56.0,29.93,West,260,3.0,7.0,92,0.00,,,-99.99,,2013-01-27 03:31:00,
2013-01-26 19:41:00,58.0,56.0,29.93,West,260,3.0,7.0,92,0.00,,,-99.99,,2013-01-27 03:41:00,
2013-01-26 20:21:00,58.0,56.0,29.94,SW,230,1.0,6.0,93,0.00,,,-99.99,,2013-01-27 04:21:00,
2013-01-26 20:31:00,58.0,56.0,29.94,SW,230,1.0,6.0,93,0.00,,,-99.99,,2013-01-27 04:31:00,
2013-01-26 20:41:00,58.0,56.0,29.94,SW,230,1.0,6.0,93,0.00,,,-99.99,,2013-01-27 04:41:00,
2013-01-26 21:22:00,58.0,56.0,29.95,WSW,240,2.0,6.0,94,0.00,,,-99.99,,2013-01-27 05:22:00,
2013-01-26 21:32:00,58.0,56.0,29.95,WSW,240,2.0,6.0,94,0.00,,,-99.99,,2013-01-27 05:32:00,
2013-01-26 21:41:00,58.0,56.0,29.95,WSW,240,2.0,6.0,94,0.00,,,-99.99,,2013-01-27 05:41:00,
2013-01-26 22:21:00,58.0,57.0,29.97,North,0,0.0,4.0,95,0.00,,,-99.99,,2013-01-27 06:21:00,
2013-01-26 22:31:00,58.0,57.0,29.97,North,0,0.0,4.0,95,0.00,,,-99.99,,2013-01-27 06:31:00,
2013-01-26 22:41:00,58.0,57.0,29.97,North,0,0.0,4.0,95,0.00,,,-99.99,,2013-01-27 06:41:00,
2013-01-26 23:21:00,57.0,56.0,29.97,WSW,250,3.0,5.0,95,0.00,,,-99.99,,2013-01-27 07:21:00,
2013-01-26 23:31:00,57.0,56.0,29.97,WSW,250,3.0,5.0,95,0.00,,,-99.99,,2013-01-27 07:31:00,
2013-01-26 23:41:00,57.0,56.0,29.97,WSW,250,3.0,5.0,95,0.00,,,-99.99,,2013-01-27 07:41:00,